Time;durP1;ratioP1;P1;durP2;ratioP2;P2;SDS_P1;SDS_P2;PMS_P1;PMS_P2;Temp;Humidity;BMP_temperature;BMP_pressure;BME280_temperature;BME280_humidity;BME280_pressure;Samples;Min_cycle;Max_cycle;Signal;HPM_P1;HPM_P2
2022/08/30 00:04:27;;;;;;;7.75;4.88;;;;;;;14.17;92.76;99706.69;8413470;28;20051;-73
2022/08/30 00:08:28;;;;;;;11.93;4.65;;;;;;;14.15;92.80;99702.69;8404132;28;20111;-74
2022/08/30 00:12:31;;;;;;;7.10;4.82;;;;;;;14.11;92.74;99712.59;8411094;28;20047;-73
2022/08/30 00:16:32;;;;;;;12.25;5.10;;;;;;;14.04;92.82;99712.25;8415496;28;20040;-73
2022/08/30 00:20:34;;;;;;;11.27;5.07;;;;;;;13.98;92.93;99705.38;8412765;28;20044;-73
2022/08/30 00:24:35;;;;;;;9.82;4.70;;;;;;;13.95;93.21;99699.47;8408236;28;20093;-73
2022/08/30 00:28:36;;;;;;;11.70;5.45;;;;;;;13.93;93.18;99712.56;8404572;28;20045;-73
2022/08/30 00:32:37;;;;;;;8.80;5.03;;;;;;;13.92;93.07;99712.88;8421774;28;20049;-73
2022/08/30 00:36:38;;;;;;;9.30;4.95;;;;;;;13.88;93.22;99704.56;8412330;28;20050;-73
2022/08/30 00:40:43;;;;;;;6.45;4.93;;;;;;;13.89;93.62;99711.59;8399092;28;20141;-73
2022/08/30 00:44:44;;;;;;;7.65;5.13;;;;;;;13.89;93.85;99700.75;8414762;28;20044;-73
2022/08/30 00:48:46;;;;;;;7.93;5.55;;;;;;;13.91;93.80;99708.56;8422366;28;20047;-72
2022/08/30 00:52:50;;;;;;;13.35;4.90;;;;;;;13.86;93.80;99701.34;8424336;28;20048;-73
2022/08/30 00:56:51;;;;;;;6.88;4.68;;;;;;;13.81;93.94;99698.78;8420068;28;20036;-74
2022/08/30 01:00:54;;;;;;;7.35;5.22;;;;;;;13.79;94.04;99695.59;8424661;28;20039;-73
2022/08/30 01:04:55;;;;;;;9.63;4.82;;;;;;;13.77;94.00;99692.41;8423676;28;20040;-74
2022/08/30 01:08:56;;;;;;;9.55;4.70;;;;;;;13.73;94.18;99685.19;8414583;28;20058;-73
2022/08/30 01:12:57;;;;;;;8.45;4.75;;;;;;;13.68;94.07;99683.44;8407922;28;20109;-73
2022/08/30 01:17:00;;;;;;;9.38;5.18;;;;;;;13.65;94.08;99675.91;8420543;28;20499;-73
2022/08/30 01:21:10;;;;;;;11.43;5.00;;;;;;;13.62;94.30;99684.69;8401816;28;20032;-73
2022/08/30 01:25:13;;;;;;;7.65;5.20;;;;;;;13.61;94.34;99677.66;8416976;28;20041;-73
2022/08/30 01:29:17;;;;;;;9.38;5.78;;;;;;;13.59;94.52;99685.31;8420712;28;20044;-73
2022/08/30 01:33:21;;;;;;;8.15;5.38;;;;;;;13.59;94.49;99679.88;8414602;28;20073;-73
2022/08/30 01:37:27;;;;;;;10.07;5.35;;;;;;;13.59;94.75;99682.59;8414509;28;20067;-73
2022/08/30 01:41:32;;;;;;;8.85;5.45;;;;;;;13.58;94.73;99694.59;8419674;28;20048;-73
2022/08/30 01:45:33;;;;;;;12.48;5.32;;;;;;;13.56;94.73;99694.09;8415586;28;20059;-73
2022/08/30 01:49:34;;;;;;;8.13;5.25;;;;;;;13.53;94.92;99692.00;8412731;28;20054;-73
2022/08/30 01:53:34;;;;;;;9.77;5.70;;;;;;;13.50;94.85;99681.78;8408855;28;20059;-73
2022/08/30 01:57:36;;;;;;;8.43;5.57;;;;;;;13.48;95.04;99690.22;8430009;28;20040;-73
2022/08/30 02:01:38;;;;;;;11.18;5.60;;;;;;;13.46;94.90;99686.22;8427478;28;20139;-73
2022/08/30 02:05:39;;;;;;;12.02;5.07;;;;;;;13.42;94.82;99685.25;8427834;28;20032;-73
2022/08/30 02:09:40;;;;;;;5.95;4.55;;;;;;;13.37;94.71;99688.13;8419903;28;20070;-73
2022/08/30 02:13:43;;;;;;;10.10;5.57;;;;;;;13.34;94.85;99683.28;8424528;28;20044;-73
2022/08/30 02:17:44;;;;;;;8.93;5.30;;;;;;;13.27;94.80;99688.38;8425189;28;20044;-73
2022/08/30 02:21:45;;;;;;;9.85;5.70;;;;;;;13.22;95.09;99691.25;8427453;28;20044;-73
2022/08/30 02:25:46;;;;;;;8.48;6.05;;;;;;;13.22;95.24;99696.66;8420804;28;20044;-73
2022/08/30 02:29:47;;;;;;;12.18;6.07;;;;;;;13.24;95.35;99699.84;8422687;28;20043;-74
2022/08/30 02:33:50;;;;;;;9.02;5.72;;;;;;;13.24;95.43;99705.28;8426722;28;20060;-74
2022/08/30 02:37:51;;;;;;;13.63;6.55;;;;;;;13.23;95.38;99703.66;8415768;28;20047;-74
2022/08/30 02:41:52;;;;;;;8.60;5.80;;;;;;;13.22;95.47;99699.38;8402531;28;20051;-73
2022/08/30 02:45:53;;;;;;;12.00;6.20;;;;;;;13.20;95.57;99707.81;8428484;28;21297;-73
2022/08/30 02:49:54;;;;;;;9.65;5.47;;;;;;;13.21;95.64;99711.31;8404794;28;20072;-74
2022/08/30 02:53:55;;;;;;;11.98;6.20;;;;;;;13.23;95.78;99709.09;8419543;28;20048;-73
2022/08/30 02:57:56;;;;;;;8.73;6.25;;;;;;;13.27;95.53;99707.38;8422507;28;20063;-73
2022/08/30 03:01:57;;;;;;;12.25;6.32;;;;;;;13.35;95.71;99712.03;8428539;28;20090;-73
2022/08/30 03:05:58;;;;;;;10.18;5.72;;;;;;;13.43;95.59;99708.56;8415571;28;20097;-73
2022/08/30 03:09:59;;;;;;;9.68;6.05;;;;;;;13.55;95.53;99714.19;8411256;28;20048;-73
2022/08/30 03:14:00;;;;;;;10.25;6.00;;;;;;;13.66;95.32;99723.66;8413525;28;20044;-73
2022/08/30 03:18:01;;;;;;;13.43;6.18;;;;;;;13.74;95.20;99720.19;8411442;28;20044;-73
2022/08/30 03:22:03;;;;;;;13.48;7.43;;;;;;;13.84;95.55;99719.91;8426168;28;20135;-73
2022/08/30 03:26:05;;;;;;;17.45;7.65;;;;;;;13.92;95.71;99727.25;8415527;28;20032;-73
2022/08/30 03:30:07;;;;;;;10.10;6.15;;;;;;;14.00;95.54;99731.13;8410135;28;20047;-73
2022/08/30 03:34:09;;;;;;;11.30;6.75;;;;;;;14.08;95.74;99729.53;8403131;28;20522;-73
2022/08/30 03:38:10;;;;;;;12.52;6.90;;;;;;;14.17;95.84;99733.06;8427804;28;20109;-73
2022/08/30 03:42:11;;;;;;;13.00;6.90;;;;;;;14.22;96.16;99732.91;8375299;28;20369;-73
2022/08/30 03:46:13;;;;;;;13.43;8.07;;;;;;;14.28;96.26;99728.91;8415053;28;20064;-74
2022/08/30 03:50:14;;;;;;;13.98;8.45;;;;;;;14.36;96.54;99730.84;8427002;28;20068;-73
2022/08/30 03:54:16;;;;;;;10.60;7.68;;;;;;;14.40;96.79;99737.28;8426977;28;20056;-73
2022/08/30 03:58:17;;;;;;;17.08;9.40;;;;;;;14.45;97.80;99739.03;8400394;28;20048;-74
2022/08/30 04:02:18;;;;;;;14.15;7.25;;;;;;;14.50;97.63;99736.97;8413616;28;20461;-74
2022/08/30 04:06:19;;;;;;;14.43;8.95;;;;;;;14.52;97.75;99740.16;8425896;28;20062;-74
2022/08/30 04:10:20;;;;;;;16.15;9.07;;;;;;;14.57;97.72;99742.72;8384260;28;20184;-74
2022/08/30 04:14:22;;;;;;;16.30;9.80;;;;;;;14.60;98.18;99739.34;8426361;28;20093;-74
2022/08/30 04:18:22;;;;;;;14.30;9.75;;;;;;;14.63;98.30;99741.47;8423613;28;20040;-74
2022/08/30 04:22:23;;;;;;;16.70;9.18;;;;;;;14.67;98.51;99742.41;8403987;28;20059;-73
2022/08/30 04:26:25;;;;;;;15.82;10.55;;;;;;;14.70;98.60;99746.38;8412539;28;20044;-74
2022/08/30 04:30:26;;;;;;;20.40;10.48;;;;;;;14.74;98.81;99748.16;8426817;28;20097;-74
2022/08/30 04:34:27;;;;;;;19.65;10.40;;;;;;;14.75;99.29;99749.75;8423797;28;20048;-74
2022/08/30 04:38:28;;;;;;;17.52;11.50;;;;;;;14.79;99.26;99767.03;8399031;28;20048;-74
2022/08/30 04:42:31;;;;;;;19.27;10.88;;;;;;;14.86;99.50;99765.75;8403567;28;20125;-74
2022/08/30 04:46:34;;;;;;;18.75;11.02;;;;;;;14.90;99.43;99753.91;8396921;28;20052;-74
2022/08/30 04:50:35;;;;;;;21.15;10.20;;;;;;;14.97;99.36;99761.56;8397198;28;20048;-74
2022/08/30 04:54:36;;;;;;;17.80;10.23;;;;;;;15.02;99.62;99758.69;8407268;28;20059;-74
2022/08/30 04:58:38;;;;;;;16.45;10.38;;;;;;;15.09;99.45;99762.53;8391837;28;20499;-74
2022/08/30 05:02:39;;;;;;;16.88;10.35;;;;;;;15.14;99.94;99767.00;8391339;28;20049;-74
2022/08/30 05:06:40;;;;;;;14.70;10.40;;;;;;;15.19;99.96;99758.66;8394840;28;20036;-75
2022/08/30 05:10:44;;;;;;;16.70;10.00;;;;;;;15.23;100.00;99759.59;8391449;28;20045;-74
2022/08/30 05:14:45;;;;;;;17.33;10.70;;;;;;;15.27;100.00;99755.16;8394732;28;20052;-74
2022/08/30 05:18:48;;;;;;;15.68;10.38;;;;;;;15.34;100.00;99760.88;8389121;28;20044;-75
2022/08/30 05:22:48;;;;;;;15.82;10.13;;;;;;;15.40;100.00;99761.50;8384065;28;20150;-74
2022/08/30 05:26:50;;;;;;;22.38;10.50;;;;;;;15.44;100.00;99776.84;8398066;28;20036;-75
2022/08/30 05:30:50;;;;;;;15.30;10.10;;;;;;;15.47;100.00;99776.22;8385878;28;20106;-73
2022/08/30 05:34:51;;;;;;;15.75;9.63;;;;;;;15.50;100.00;99770.13;8432266;28;20069;-74
2022/08/30 05:38:53;;;;;;;17.88;10.60;;;;;;;15.53;100.00;99766.78;8430301;28;20064;-74
2022/08/30 05:42:54;;;;;;;20.08;11.25;;;;;;;15.61;100.00;99771.38;8432888;28;20116;-74
2022/08/30 05:46:55;;;;;;;19.33;10.73;;;;;;;15.59;100.00;99773.66;8420199;28;20725;-74
2022/08/30 05:51:05;;;;;;;17.02;10.30;;;;;;;15.56;100.00;99779.72;8429433;28;20064;-74
2022/08/30 05:55:07;;;;;;;18.70;11.77;;;;;;;15.59;100.00;99781.81;8425143;28;20045;-74
2022/08/30 05:59:08;;;;;;;22.58;11.82;;;;;;;15.54;100.00;99776.56;8410409;28;20051;-74
2022/08/30 06:03:11;;;;;;;21.58;12.50;;;;;;;15.66;100.00;99775.06;8430716;28;20485;-74
2022/08/30 06:07:12;;;;;;;25.13;14.57;;;;;;;15.78;100.00;99780.63;8431617;28;20400;-74
2022/08/30 06:11:21;;;;;;;26.88;15.23;;;;;;;15.89;100.00;99787.31;8394790;28;20055;-74
2022/08/30 06:15:22;;;;;;;32.42;15.77;;;;;;;15.93;100.00;99783.59;8414810;28;20054;-74
2022/08/30 06:19:23;;;;;;;31.00;16.15;;;;;;;15.93;100.00;99785.53;8433157;28;20067;-74
2022/08/30 06:23:24;;;;;;;27.10;15.57;;;;;;;16.01;100.00;99785.50;8430842;28;20565;-75
2022/08/30 06:27:25;;;;;;;34.97;18.45;;;;;;;16.12;100.00;99791.38;8431502;28;20073;-75
2022/08/30 06:31:26;;;;;;;27.77;16.73;;;;;;;16.23;100.00;99787.13;8431303;28;20056;-75
2022/08/30 06:35:27;;;;;;;28.25;15.90;;;;;;;16.28;100.00;99792.41;8429845;28;20492;-75
2022/08/30 06:39:28;;;;;;;25.48;15.30;;;;;;;16.33;99.99;99797.66;8417471;28;20434;-74
2022/08/30 06:43:29;;;;;;;25.50;15.05;;;;;;;16.32;100.00;99796.06;8399012;28;20047;-75
2022/08/30 06:47:30;;;;;;;20.80;14.13;;;;;;;16.37;100.00;99798.59;8432669;28;20484;-75
2022/08/30 06:51:35;;;;;;;23.05;15.23;;;;;;;16.37;100.00;99798.59;8434926;28;20071;-75
2022/08/30 06:55:36;;;;;;;22.55;13.95;;;;;;;16.43;100.00;99808.19;8434737;28;20052;-75
2022/08/30 06:59:37;;;;;;;17.58;12.75;;;;;;;16.48;100.00;99802.53;8407933;28;20047;-75
2022/08/30 07:03:39;;;;;;;21.08;12.93;;;;;;;16.58;100.00;99803.28;8393371;28;20044;-75
2022/08/30 07:07:40;;;;;;;17.90;12.23;;;;;;;16.69;99.97;99809.97;8425026;28;20139;-75
2022/08/30 07:11:41;;;;;;;19.73;13.52;;;;;;;16.74;99.64;99817.94;8428455;28;20048;-75
2022/08/30 07:15:43;;;;;;;19.90;12.43;;;;;;;16.74;99.97;99817.94;8417604;28;20519;-75
2022/08/30 07:19:44;;;;;;;20.40;12.50;;;;;;;16.80;99.67;99816.63;8411187;28;20097;-75
2022/08/30 07:23:48;;;;;;;22.88;13.05;;;;;;;16.90;99.58;99816.22;8431818;28;20051;-75
2022/08/30 07:27:50;;;;;;;22.20;12.40;;;;;;;17.04;98.98;99822.19;8431499;28;20389;-75
2022/08/30 07:31:52;;;;;;;17.45;11.65;;;;;;;17.18;98.21;99816.47;8431156;28;20444;-75
2022/08/30 07:35:53;;;;;;;14.75;10.52;;;;;;;17.37;97.64;99826.88;8430365;28;20032;-75
2022/08/30 07:39:54;;;;;;;15.35;10.82;;;;;;;17.51;97.11;99824.66;8432981;28;20484;-75
2022/08/30 07:43:55;;;;;;;18.35;10.18;;;;;;;17.64;96.37;99834.50;8434353;28;20055;-75
2022/08/30 07:47:56;;;;;;;14.98;9.73;;;;;;;17.72;96.15;99831.69;8431282;28;20636;-75
2022/08/30 07:51:57;;;;;;;13.43;10.02;;;;;;;17.77;96.07;99827.94;8414606;28;20052;-75
2022/08/30 07:55:58;;;;;;;12.65;9.00;;;;;;;17.89;95.47;99835.34;8423166;28;20135;-74
2022/08/30 08:00:00;;;;;;;11.98;8.00;;;;;;;17.99;94.75;99834.91;8402040;28;20050;-75
2022/08/30 08:04:01;;;;;;;18.00;8.80;;;;;;;18.01;94.09;99847.09;8401360;28;20051;-75
2022/08/30 08:08:03;;;;;;;14.80;8.40;;;;;;;17.97;94.18;99843.47;8404547;28;20048;-75
2022/08/30 08:12:06;;;;;;;13.93;8.80;;;;;;;17.95;93.99;99851.19;8410900;28;20164;-75
2022/08/30 08:16:07;;;;;;;10.68;7.53;;;;;;;18.06;93.63;99852.34;8409063;28;20062;-74
2022/08/30 08:20:09;;;;;;;12.23;8.52;;;;;;;18.15;92.87;99865.91;8420334;28;20044;-75
2022/08/30 08:24:10;;;;;;;12.32;8.70;;;;;;;18.11;93.15;99860.31;8413110;28;20067;-74
2022/08/30 08:28:11;;;;;;;18.02;8.82;;;;;;;18.19;92.86;99871.50;8421592;28;20048;-75
2022/08/30 08:32:12;;;;;;;13.65;8.13;;;;;;;18.30;92.42;99869.88;8422697;28;20040;-75
2022/08/30 08:36:13;;;;;;;11.30;7.68;;;;;;;18.47;91.81;99866.94;8383971;28;20116;-74
2022/08/30 08:40:17;;;;;;;9.38;6.78;;;;;;;18.63;89.72;99870.59;8388500;28;20044;-74
2022/08/30 08:44:24;;;;;;;11.15;6.68;;;;;;;18.81;89.01;99874.69;8423555;28;20098;-75
2022/08/30 08:48:37;;;;;;;10.85;6.10;;;;;;;18.94;88.18;99876.25;8427348;28;20059;-74
2022/08/30 08:57:21;;;;;;;9.93;6.10;;;;;;;19.10;86.27;99883.75;8274169;28;20542;-74
2022/08/30 09:01:28;;;;;;;7.30;4.93;;;;;;;19.20;85.77;99877.78;8272211;28;20060;-75
2022/08/30 09:05:37;;;;;;;8.60;5.20;;;;;;;19.23;85.33;99885.31;8271503;28;20543;-74
2022/08/30 09:09:39;;;;;;;;;;;;;;;19.42;85.30;99880.00;8276005;28;20042;-75
2022/08/30 09:13:40;;;;;;;8.82;4.43;;;;;;;19.53;84.09;99875.63;8226114;28;19961;-74
2022/08/30 09:18:02;;;;;;;6.80;4.45;;;;;;;19.45;82.77;99879.34;8228031;28;20050;-74
2022/08/30 09:22:20;;;;;;;8.15;4.18;;;;;;;19.53;82.52;99874.84;8231362;28;20052;-74
2022/08/30 09:26:33;;;;;;;8.63;3.20;;;;;;;19.53;80.90;99881.13;8243253;28;20054;-74
2022/08/30 09:30:35;;;;;;;4.80;3.67;;;;;;;19.68;80.86;99872.13;8225394;28;20058;-74
2022/08/30 09:34:36;;;;;;;7.93;3.83;;;;;;;19.51;80.69;99877.91;8334160;28;20609;-74
2022/08/30 09:38:37;;;;;;;7.97;4.30;;;;;;;19.46;81.17;99886.38;8370435;28;20395;-75
2022/08/30 09:42:38;;;;;;;6.15;3.40;;;;;;;19.54;79.62;99881.91;8370253;28;20037;-75
2022/08/30 09:47:00;;;;;;;7.20;4.35;;;;;;;19.83;79.15;99883.50;8355890;28;20053;-74
2022/08/30 09:51:10;;;;;;;5.63;3.53;;;;;;;19.74;79.38;99870.72;8387571;28;20134;-74
2022/08/30 09:55:22;;;;;;;5.43;3.38;;;;;;;20.07;76.45;99866.88;8421941;28;20166;-73
2022/08/30 09:59:36;;;;;;;7.82;4.72;;;;;;;20.26;76.01;99869.69;8426457;28;20051;-74
2022/08/30 10:03:51;;;;;;;5.25;3.70;;;;;;;20.02;76.88;99864.41;8426329;28;20135;-75
2022/08/30 10:08:04;;;;;;;5.93;3.55;;;;;;;20.50;76.73;99864.06;8396801;28;20052;-74
2022/08/30 10:12:19;;;;;;;6.38;3.42;;;;;;;20.86;73.47;99865.66;8426452;28;20052;-74
2022/08/30 10:16:44;;;;;;;4.22;3.20;;;;;;;20.53;73.53;99868.81;8431338;28;21029;-74
2022/08/30 10:21:00;;;;;;;5.72;3.80;;;;;;;20.26;75.22;99858.72;8418058;28;20816;-74
2022/08/30 10:25:15;;;;;;;4.90;3.13;;;;;;;20.37;74.61;99854.34;8432073;28;20151;-74
2022/08/30 10:29:54;;;;;;;5.32;3.20;;;;;;;20.69;73.92;99843.28;8423261;28;20051;-74
2022/08/30 10:34:05;;;;;;;5.55;3.30;;;;;;;21.05;72.32;99848.41;8276572;28;20054;-75
2022/08/30 10:38:23;;;;;;;6.25;3.20;;;;;;;21.03;70.91;99847.97;8275549;28;20038;-75
2022/08/30 10:42:26;;;;;;;4.67;2.57;;;;;;;20.67;71.96;99848.38;8182836;28;20505;-74
2022/08/30 10:46:39;;;;;;;3.75;2.88;;;;;;;20.88;70.73;99851.59;8181637;28;20047;-74
2022/08/30 10:50:43;;;;;;;5.40;2.80;;;;;;;20.52;70.71;99845.28;8166656;29;20050;-74
2022/08/30 10:54:57;;;;;;;4.15;2.60;;;;;;;20.53;71.02;99844.13;8182378;29;20055;-74
2022/08/30 10:58:58;;;;;;;6.20;2.47;;;;;;;20.77;71.17;99842.31;8181752;28;20054;-74
2022/08/30 11:03:18;;;;;;;5.25;2.88;;;;;;;21.22;70.04;99831.53;8197331;28;20058;-74
2022/08/30 11:07:57;;;;;;;3.88;2.67;;;;;;;21.66;68.61;99832.00;8288936;28;20041;-74
2022/08/30 11:12:15;;;;;;;6.87;2.70;;;;;;;21.96;66.75;99826.66;8283215;28;20049;-74
2022/08/30 11:16:17;;;;;;;4.63;2.60;;;;;;;22.13;65.22;99823.41;8326646;28;20052;-73
2022/08/30 11:20:36;;;;;;;2.10;1.88;;;;;;;22.37;64.12;99826.91;8326562;28;20268;-74
2022/08/30 11:25:04;;;;;;;3.58;2.53;;;;;;;22.60;63.11;99824.91;8326848;28;20095;-74
2022/08/30 11:29:06;;;;;;;6.22;3.35;;;;;;;22.81;62.45;99825.22;8266803;28;20041;-73
2022/08/30 11:33:10;;;;;;;2.63;2.10;;;;;;;22.91;61.09;99819.06;8287783;28;20084;-73
2022/08/30 11:37:29;;;;;;;6.55;2.15;;;;;;;22.94;60.74;99812.81;8326461;28;20050;-73
2022/08/30 11:41:43;;;;;;;4.13;2.70;;;;;;;23.01;60.99;99817.59;8327125;28;20160;-74
2022/08/30 11:45:50;;;;;;;4.20;2.58;;;;;;;22.49;63.05;99823.94;8325743;28;20072;-74
2022/08/30 11:50:08;;;;;;;6.43;3.13;;;;;;;22.04;65.08;99814.63;8416584;28;20139;-74
2022/08/30 11:54:27;;;;;;;6.15;3.08;;;;;;;21.96;66.27;99812.09;8408543;28;20403;-74
2022/08/30 11:58:51;;;;;;;6.15;3.22;;;;;;;21.96;66.52;99812.91;8422653;28;20073;-74
2022/08/30 12:03:01;;;;;;;7.90;3.28;;;;;;;22.43;65.38;99809.72;8425612;28;20048;-73
2022/08/30 12:07:05;;;;;;;3.50;2.75;;;;;;;22.45;64.33;99806.59;8429472;28;20047;-74
2022/08/30 12:11:10;;;;;;;5.65;3.40;;;;;;;22.06;66.11;99806.78;8428310;28;20070;-74
2022/08/30 12:15:27;;;;;;;7.15;3.00;;;;;;;21.81;67.57;99800.03;8419650;28;20067;-74
2022/08/30 12:19:30;;;;;;;8.45;3.47;;;;;;;21.51;68.03;99801.88;8389506;28;20117;-74
2022/08/30 12:23:58;;;;;;;5.38;3.15;;;;;;;21.58;69.53;99808.28;8339623;28;20067;-74
2022/08/30 12:28:11;;;;;;;4.87;2.53;;;;;;;22.22;67.31;99793.69;8389341;28;20044;-73
2022/08/30 12:32:18;;;;;;;2.88;2.30;;;;;;;22.55;62.91;99789.44;8388650;28;20044;-74
2022/08/30 12:36:38;;;;;;;3.55;2.28;;;;;;;22.72;63.03;99789.72;8389082;28;20059;-73
2022/08/30 12:40:48;;;;;;;2.95;2.20;;;;;;;22.74;62.66;99797.59;8389108;28;20059;-74
2022/08/30 12:44:51;;;;;;;4.43;2.28;;;;;;;22.71;62.09;99792.84;8386239;28;20045;-74
2022/08/30 12:48:52;;;;;;;3.63;2.38;;;;;;;22.71;62.58;99782.63;8389525;28;20516;-74
2022/08/30 12:53:06;;;;;;;3.92;2.65;;;;;;;22.84;61.24;99783.16;8355244;28;20056;-74
2022/08/30 12:57:07;;;;;;;2.78;1.80;;;;;;;22.86;59.71;99788.31;8371975;28;20078;-74
2022/08/30 13:01:31;;;;;;;2.15;1.95;;;;;;;22.85;58.96;99782.00;8358663;28;20049;-73
2022/08/30 13:05:42;;;;;;;3.13;2.40;;;;;;;22.74;59.11;99775.56;8362128;28;20056;-74
2022/08/30 13:09:43;;;;;;;5.95;2.17;;;;;;;22.76;57.91;99776.00;8373852;28;20048;-75
2022/08/30 13:13:53;;;;;;;3.58;2.50;;;;;;;22.66;57.64;99762.84;8359377;28;20051;-74
2022/08/30 13:18:33;;;;;;;2.65;2.15;;;;;;;22.76;58.37;99766.94;8355253;28;20576;-74
2022/08/30 13:22:36;;;;;;;5.03;2.50;;;;;;;22.98;58.93;99764.06;8247731;28;20057;-74
2022/08/30 13:26:39;;;;;;;5.82;2.38;;;;;;;23.82;56.43;99746.84;8277785;28;20037;-74
2022/08/30 13:30:40;;;;;;;2.70;1.92;;;;;;;25.30;51.71;99754.34;8299044;28;20096;-74
2022/08/30 13:34:42;;;;;;;3.08;1.75;;;;;;;26.80;48.04;99747.56;8322827;28;20062;-74
2022/08/30 13:38:43;;;;;;;2.25;1.73;;;;;;;28.31;46.22;99750.53;8320564;28;20038;-74
2022/08/30 13:42:44;;;;;;;4.32;2.03;;;;;;;29.43;44.79;99741.22;8279293;28;20080;-74
2022/08/30 13:46:48;;;;;;;2.80;1.90;;;;;;;29.70;44.65;99747.56;8290351;28;20166;-74
2022/08/30 13:50:50;;;;;;;3.17;1.90;;;;;;;30.29;42.40;99735.81;8295947;28;20092;-74
2022/08/30 13:54:53;;;;;;;3.78;2.05;;;;;;;30.96;41.21;99744.84;8324110;28;20703;-75
2022/08/30 13:58:54;;;;;;;3.15;1.92;;;;;;;31.66;39.42;99741.72;8396611;28;20076;-74
2022/08/30 14:02:55;;;;;;;2.53;1.77;;;;;;;31.54;37.73;99739.56;8395520;28;20122;-74
2022/08/30 14:06:56;;;;;;;2.25;1.60;;;;;;;32.11;37.03;99739.78;8396314;28;20048;-75
2022/08/30 14:10:57;;;;;;;1.98;1.77;;;;;;;33.05;35.57;99734.72;8385412;28;20049;-75
2022/08/30 14:14:59;;;;;;;1.98;1.70;;;;;;;33.62;35.36;99732.97;8421576;28;20040;-74
2022/08/30 14:19:01;;;;;;;4.63;1.50;;;;;;;34.17;33.16;99733.53;8429797;28;20054;-74
2022/08/30 14:23:02;;;;;;;2.80;1.50;;;;;;;34.04;32.59;99730.00;8378836;28;20047;-74
2022/08/30 14:27:03;;;;;;;1.67;1.33;;;;;;;33.10;33.90;99734.19;8431600;28;20472;-74
2022/08/30 14:31:04;;;;;;;3.70;1.60;;;;;;;31.32;35.89;99734.50;8431925;28;20055;-74
2022/08/30 14:35:06;;;;;;;4.43;1.45;;;;;;;28.71;40.42;99731.44;8431898;28;20122;-74
2022/08/30 14:39:08;;;;;;;1.83;1.30;;;;;;;26.83;45.06;99741.22;8432843;28;20431;-74
2022/08/30 14:43:09;;;;;;;1.48;1.38;;;;;;;25.98;48.14;99730.31;8426407;28;20040;-75
2022/08/30 14:47:10;;;;;;;3.20;1.70;;;;;;;25.29;51.99;99727.91;8416546;28;20469;-74
2022/08/30 14:51:17;;;;;;;4.47;1.83;;;;;;;24.93;52.67;99737.28;8402610;28;20090;-74
2022/08/30 14:55:18;;;;;;;1.90;1.53;;;;;;;24.60;52.82;99730.78;8427281;28;20555;-74
2022/08/30 14:59:20;;;;;;;6.50;1.50;;;;;;;24.77;52.83;99735.63;8427142;28;20055;-73
2022/08/30 15:03:21;;;;;;;2.42;1.50;;;;;;;24.38;52.38;99727.13;8433661;28;20392;-74
2022/08/30 15:07:22;;;;;;;2.28;1.63;;;;;;;24.08;52.96;99714.69;8435310;28;20047;-74
2022/08/30 15:11:24;;;;;;;2.65;1.67;;;;;;;23.79;53.45;99714.50;8433973;28;20078;-74
2022/08/30 15:15:25;;;;;;;4.18;1.77;;;;;;;23.58;54.41;99719.84;8418850;28;20044;-74
2022/08/30 15:19:26;;;;;;;3.75;1.73;;;;;;;23.48;55.01;99703.97;8419023;28;20055;-74
2022/08/30 15:23:27;;;;;;;2.45;1.40;;;;;;;23.42;54.87;99702.75;8433196;28;20493;-74
2022/08/30 15:27:28;;;;;;;4.20;1.50;;;;;;;23.37;55.16;99708.59;8434536;28;20044;-75
2022/08/30 15:31:30;;;;;;;5.53;1.98;;;;;;;23.19;56.00;99710.38;8422391;28;20040;-74
2022/08/30 15:35:32;;;;;;;5.13;2.00;;;;;;;23.06;56.16;99710.63;8415768;28;20473;-75
2022/08/30 15:39:32;;;;;;;4.13;1.50;;;;;;;22.90;56.92;99707.31;8421289;28;20052;-75
2022/08/30 15:43:34;;;;;;;5.80;1.48;;;;;;;22.73;57.78;99707.91;8429321;28;20673;-75
2022/08/30 15:47:35;;;;;;;7.32;1.60;;;;;;;22.46;58.96;99706.34;8429183;28;20110;-75
2022/08/30 15:51:36;;;;;;;3.03;1.58;;;;;;;22.30;59.78;99701.84;8427842;28;20044;-74
2022/08/30 15:55:37;;;;;;;4.60;1.20;;;;;;;22.20;60.46;99713.50;8385989;28;20052;-75
2022/08/30 15:59:38;;;;;;;1.80;1.10;;;;;;;22.02;60.80;99706.13;8420773;28;20055;-74
2022/08/30 16:03:40;;;;;;;5.85;2.30;;;;;;;21.92;60.85;99697.31;8423858;28;20048;-74
2022/08/30 16:07:44;;;;;;;4.30;1.40;;;;;;;21.84;61.03;99705.81;8423836;28;20059;-74
2022/08/30 16:11:45;;;;;;;2.42;1.60;;;;;;;21.76;61.50;99709.63;8408564;28;20110;-74
2022/08/30 16:15:48;;;;;;;6.35;2.47;;;;;;;21.61;61.59;99696.81;8428006;28;20052;-74
2022/08/30 16:19:49;;;;;;;4.40;1.60;;;;;;;21.57;62.08;99690.47;8427445;28;20044;-74
2022/08/30 16:23:53;;;;;;;3.10;1.65;;;;;;;21.42;63.39;99695.72;8424834;28;20044;-74
2022/08/30 16:27:54;;;;;;;4.70;1.40;;;;;;;21.31;63.74;99689.25;8427138;28;20044;-74
2022/08/30 16:31:55;;;;;;;2.80;1.30;;;;;;;21.17;64.49;99683.50;8426087;28;20059;-74
2022/08/30 16:35:56;;;;;;;4.00;1.40;;;;;;;21.08;64.86;99685.66;8425144;28;20070;-74
2022/08/30 16:39:57;;;;;;;1.98;1.17;;;;;;;20.94;66.34;99685.38;8425786;28;20036;-74
2022/08/30 16:43:59;;;;;;;3.65;1.13;;;;;;;20.77;67.38;99688.59;8426711;28;20044;-75
2022/08/30 16:48:01;;;;;;;1.58;1.27;;;;;;;20.62;68.77;99691.03;8411025;28;20044;-74
2022/08/30 16:52:02;;;;;;;1.83;1.30;;;;;;;20.45;69.26;99686.00;8385482;28;20040;-74
2022/08/30 16:56:07;;;;;;;3.35;1.70;;;;;;;20.30;70.37;99700.56;8426424;28;20056;-74
2022/08/30 17:00:10;;;;;;;2.40;1.10;;;;;;;20.18;70.61;99689.69;8425223;28;20433;-74
2022/08/30 17:04:12;;;;;;;2.45;1.30;;;;;;;20.03;71.54;99693.28;8412304;28;20092;-74
2022/08/30 17:08:13;;;;;;;1.70;1.10;;;;;;;19.88;71.97;99694.09;8426362;28;20416;-74
2022/08/30 17:12:14;;;;;;;2.30;1.40;;;;;;;19.76;72.66;99704.03;8412167;28;20481;-74
2022/08/30 17:16:15;;;;;;;4.97;1.45;;;;;;;19.63;73.51;99699.78;8421327;28;20052;-74
2022/08/30 17:20:17;;;;;;;2.17;1.10;;;;;;;19.51;74.21;99702.59;8426010;28;20055;-74
2022/08/30 17:24:19;;;;;;;6.75;1.40;;;;;;;19.37;75.24;99702.22;8409407;28;20043;-74
2022/08/30 17:28:20;;;;;;;2.17;1.20;;;;;;;19.23;76.03;99715.53;8432638;28;20441;-74
2022/08/30 17:32:21;;;;;;;5.68;1.63;;;;;;;19.11;76.45;99710.13;8411985;28;20052;-74
2022/08/30 17:36:22;;;;;;;4.28;2.00;;;;;;;18.98;77.28;99715.66;8423351;28;20132;-74
2022/08/30 17:40:23;;;;;;;6.45;1.80;;;;;;;18.87;77.78;99725.53;8427027;28;20052;-74
2022/08/30 17:44:28;;;;;;;8.30;3.92;;;;;;;18.78;78.20;99727.59;8432125;28;20054;-74
2022/08/30 17:48:29;;;;;;;5.07;2.65;;;;;;;18.72;78.66;99742.69;8389615;28;20278;-73
2022/08/30 17:52:30;;;;;;;9.20;3.58;;;;;;;18.64;79.04;99746.38;8430939;28;20128;-73
2022/08/30 17:56:31;;;;;;;17.92;6.22;;;;;;;18.56;79.76;99747.28;8432067;28;20063;-74
2022/08/30 18:00:32;;;;;;;10.48;7.25;;;;;;;18.44;79.92;99759.03;8431979;28;20109;-74
2022/08/30 18:04:33;;;;;;;19.27;8.48;;;;;;;18.31;80.44;99748.44;8412444;28;20485;-74
2022/08/30 18:08:36;;;;;;;19.75;10.98;;;;;;;18.19;81.00;99762.16;8428003;28;20055;-73
2022/08/30 18:12:36;;;;;;;18.00;11.55;;;;;;;18.07;81.11;99766.50;8431734;28;20052;-74
2022/08/30 18:16:38;;;;;;;12.63;8.88;;;;;;;17.96;81.60;99765.34;8393823;28;20040;-74
2022/08/30 18:20:39;;;;;;;7.30;5.38;;;;;;;17.86;81.92;99771.25;8421877;28;20064;-74
2022/08/30 18:24:41;;;;;;;5.68;3.47;;;;;;;17.74;82.13;99768.50;8428992;28;20075;-73
2022/08/30 18:28:44;;;;;;;8.23;2.70;;;;;;;17.62;82.51;99771.22;8425413;28;20048;-73
2022/08/30 18:32:46;;;;;;;8.35;2.03;;;;;;;17.54;82.80;99769.38;8419162;28;20044;-73
2022/08/30 18:36:48;;;;;;;6.13;2.63;;;;;;;17.46;82.85;99779.25;8418506;28;20519;-74
2022/08/30 18:41:02;;;;;;;8.88;3.00;;;;;;;17.38;83.19;99771.16;8355896;28;20051;-74
2022/08/30 18:45:06;;;;;;;7.82;2.92;;;;;;;17.34;83.03;99775.69;8422531;28;20043;-74
2022/08/30 18:49:07;;;;;;;7.68;3.25;;;;;;;17.24;83.18;99776.91;8345328;28;20177;-74
2022/08/30 18:53:09;;;;;;;8.02;3.53;;;;;;;17.13;83.49;99787.44;8411104;28;20455;-73
2022/08/30 18:57:12;;;;;;;8.80;3.35;;;;;;;17.04;83.56;99773.06;8401140;28;20067;-73
2022/08/30 19:01:15;;;;;;;17.77;8.15;;;;;;;16.97;83.98;99772.84;8418470;28;20527;-74
2022/08/30 19:05:21;;;;;;;19.02;8.60;;;;;;;16.89;84.08;99766.31;8407378;28;20082;-73
2022/08/30 19:09:22;;;;;;;21.58;9.30;;;;;;;16.83;84.08;99766.84;8413342;28;20055;-74